createdAt,value
2019-03-18T00:01:40.907Z,99638.46
2019-03-18T00:04:28.114Z,99653.25
2019-03-18T00:07:15.226Z,99663.54
2019-03-18T00:10:03.636Z,99668.29
2019-03-18T00:12:53.177Z,99667.48
2019-03-18T00:15:39.834Z,99662.28
2019-03-18T00:18:29.322Z,99663.22
2019-03-18T00:21:18.943Z,99671.66
2019-03-18T00:24:05.644Z,99676.80
2019-03-18T00:26:52.539Z,99672.44
2019-03-18T00:29:39.423Z,99672.81
2019-03-18T00:32:26.141Z,99671.63
2019-03-18T00:35:13.619Z,99680.88
2019-03-18T00:37:59.847Z,99681.77
2019-03-18T00:40:46.707Z,99681.39
2019-03-18T00:43:34.071Z,99686.97
2019-03-18T00:46:20.730Z,99690.91
2019-03-18T00:49:07.607Z,99697.58
2019-03-18T00:51:54.899Z,99691.19
2019-03-18T00:54:42.451Z,99704.42
2019-03-18T00:57:29.111Z,99697.57
2019-03-18T01:00:16.202Z,99697.57
2019-03-18T01:03:03.188Z,99692.91
2019-03-18T01:05:49.861Z,99683.99
2019-03-18T01:08:36.859Z,99685.55
2019-03-18T01:11:23.591Z,99686.41
2019-03-18T01:14:10.234Z,99692.91
2019-03-18T01:16:58.575Z,99697.45
2019-03-18T01:19:45.191Z,99700.88
2019-03-18T01:22:31.896Z,99688.65
2019-03-18T01:25:19.327Z,99696.28
2019-03-18T01:28:05.997Z,99694.05
2019-03-18T01:30:52.601Z,99696.75
2019-03-18T01:33:39.651Z,99691.16
2019-03-18T01:36:26.379Z,99692.06
2019-03-18T01:39:13.000Z,99687.47
2019-03-18T01:42:03.633Z,99693.98
2019-03-18T01:44:50.335Z,99693.02
2019-03-18T01:47:37.255Z,99687.22
2019-03-18T01:50:26.066Z,99690.55
2019-03-18T01:53:12.723Z,99692.20
2019-03-18T01:55:59.667Z,99683.70
2019-03-18T01:58:46.486Z,99690.92
2019-03-18T02:01:33.309Z,99696.91
2019-03-18T02:04:20.606Z,99689.97
2019-03-18T02:07:07.284Z,99694.84
2019-03-18T02:09:53.448Z,99690.07
2019-03-18T02:12:41.799Z,99683.28
2019-03-18T02:15:28.640Z,99681.89
2019-03-18T02:18:15.398Z,99687.24
2019-03-18T02:21:02.204Z,99692.26
2019-03-18T02:23:49.581Z,99687.18
2019-03-18T02:26:36.093Z,99682.55
2019-03-18T02:29:23.193Z,99685.95
2019-03-18T02:32:10.913Z,99685.95
2019-03-18T02:34:57.037Z,99693.23
2019-03-18T02:37:43.426Z,99685.19
2019-03-18T02:40:30.781Z,99675.80
2019-03-18T02:43:17.734Z,99677.50
2019-03-18T02:46:10.446Z,99676.70
2019-03-18T02:48:53.430Z,99691.63
2019-03-18T02:51:40.856Z,99701.83
2019-03-18T02:54:27.910Z,99702.78
2019-03-18T02:57:14.868Z,99705.20
2019-03-18T03:00:01.722Z,99710.38
2019-03-18T03:02:49.309Z,99718.92
2019-03-18T03:05:35.962Z,99720.55
2019-03-18T03:08:22.691Z,99718.41
2019-03-18T03:11:11.285Z,99728.26
2019-03-18T03:13:58.608Z,99720.08
2019-03-18T03:16:45.101Z,99726.91
2019-03-18T03:19:32.523Z,99731.16
2019-03-18T03:22:18.918Z,99728.64
2019-03-18T03:25:06.345Z,99728.64
2019-03-18T03:27:54.868Z,99737.62
2019-03-18T03:30:41.416Z,99735.09
2019-03-18T03:33:28.274Z,99731.16
2019-03-18T03:36:15.672Z,99734.27
2019-03-18T03:39:02.252Z,99744.11
2019-03-18T03:41:49.678Z,99738.96
2019-03-18T03:44:36.508Z,99740.28
2019-03-18T03:47:23.523Z,99740.19
2019-03-18T03:50:11.022Z,99754.70
2019-03-18T03:52:57.966Z,99749.77
2019-03-18T03:55:45.074Z,99767.48
2019-03-18T03:58:31.912Z,99768.39
2019-03-18T04:01:18.703Z,99767.89
2019-03-18T04:04:05.844Z,99777.44
2019-03-18T04:06:52.329Z,99776.52
2019-03-18T04:09:39.642Z,99782.06
2019-03-18T04:12:26.242Z,99796.05
2019-03-18T04:15:13.173Z,99793.53
2019-03-18T04:18:00.403Z,99795.31
2019-03-18T04:20:47.294Z,99794.80
2019-03-18T04:23:33.888Z,99802.86
2019-03-18T04:26:21.371Z,99809.72
2019-03-18T04:29:08.163Z,99804.17
2019-03-18T04:31:55.699Z,99810.61
2019-03-18T04:34:43.998Z,99814.54
2019-03-18T04:37:30.536Z,99806.89
2019-03-18T04:40:17.677Z,99808.97
2019-03-18T04:43:04.696Z,99811.88
2019-03-18T04:45:51.317Z,99820.91
2019-03-18T04:48:37.693Z,99820.01
2019-03-18T04:51:24.801Z,99823.03
2019-03-18T04:54:11.007Z,99820.06
2019-03-18T04:56:58.097Z,99819.95
2019-03-18T04:59:46.155Z,99824.09
2019-03-18T05:02:32.468Z,99821.05
2019-03-18T05:05:19.320Z,99835.50
2019-03-18T05:08:06.277Z,99841.23
2019-03-18T05:10:52.809Z,99856.28
2019-03-18T05:13:38.943Z,99849.32
2019-03-18T05:16:26.002Z,99849.28
2019-03-18T05:19:12.624Z,99856.20
2019-03-18T05:21:59.881Z,99872.45
2019-03-18T05:24:46.352Z,99874.30
2019-03-18T05:27:32.985Z,99877.81
2019-03-18T05:30:20.169Z,99886.13
2019-03-18T05:33:09.032Z,99885.70
2019-03-18T05:35:55.667Z,99889.27
2019-03-18T05:38:42.676Z,99888.88
2019-03-18T05:41:30.025Z,99901.20
2019-03-18T05:44:16.680Z,99885.60
2019-03-18T05:47:03.424Z,99894.78
2019-03-18T05:49:50.564Z,99906.73
2019-03-18T05:52:36.945Z,99909.54
2019-03-18T05:55:24.171Z,99915.08
2019-03-18T05:58:10.901Z,99914.22
2019-03-18T06:00:57.581Z,99920.45
2019-03-18T06:03:44.577Z,99909.67
2019-03-18T06:06:31.237Z,99924.27
2019-03-18T06:09:17.652Z,99932.86
2019-03-18T06:12:04.578Z,99939.27
2019-03-18T06:14:53.976Z,99937.66
2019-03-18T06:17:51.652Z,99945.02
2019-03-18T06:20:31.097Z,99954.97
2019-03-18T06:23:17.405Z,99957.11
2019-03-18T06:26:05.351Z,99957.95
2019-03-18T06:28:52.725Z,99966.25
2019-03-18T06:31:39.841Z,99973.06
2019-03-18T06:34:31.685Z,99969.32
2019-03-18T06:37:24.205Z,99974.63
2019-03-18T06:40:13.951Z,99975.48
2019-03-18T06:43:17.229Z,99995.95
2019-03-18T06:46:05.045Z,99991.64
2019-03-18T06:48:51.581Z,100004.42
2019-03-18T06:51:38.456Z,100002.89
2019-03-18T06:54:25.127Z,100010.37
2019-03-18T06:57:11.793Z,100016.89
2019-03-18T06:59:58.610Z,100020.19
2019-03-18T07:02:45.020Z,100015.95
2019-03-18T07:05:34.373Z,100018.80
2019-03-18T07:08:21.975Z,100015.88
2019-03-18T07:11:10.766Z,100025.19
2019-03-18T07:13:57.225Z,100029.53
2019-03-18T07:16:44.310Z,100025.51
2019-03-18T07:19:31.510Z,100040.22
2019-03-18T07:22:18.254Z,100039.19
2019-03-18T07:25:05.813Z,100047.95
2019-03-18T07:27:52.643Z,100062.50
2019-03-18T07:30:39.541Z,100056.24
2019-03-18T07:33:26.782Z,100063.38
2019-03-18T07:36:13.313Z,100077.31
2019-03-18T07:39:00.217Z,100075.84
2019-03-18T07:41:47.400Z,100069.05
2019-03-18T07:44:33.637Z,100083.78
2019-03-18T07:47:24.626Z,100084.47
2019-03-18T07:50:11.079Z,100082.27
2019-03-18T07:52:58.358Z,100086.58
2019-03-18T07:55:44.920Z,100084.59
2019-03-18T07:58:31.562Z,100100.30
2019-03-18T08:01:19.994Z,100098.28
2019-03-18T08:04:06.667Z,100106.04
2019-03-18T08:06:56.114Z,100106.17
2019-03-18T08:09:42.882Z,100110.34
2019-03-18T08:12:31.407Z,100117.17
2019-03-18T08:15:21.272Z,100115.49
2019-03-18T08:18:08.942Z,100121.47
2019-03-18T08:20:55.881Z,100124.87
2019-03-18T08:23:43.119Z,100123.88
2019-03-18T08:26:30.062Z,100132.23
2019-03-18T08:29:16.661Z,100140.73
2019-03-18T08:32:03.694Z,100133.36
2019-03-18T08:34:50.594Z,100138.11
2019-03-18T08:37:37.413Z,100142.73
2019-03-18T08:40:24.242Z,100139.95
2019-03-18T08:43:11.259Z,100141.66
2019-03-18T08:45:57.634Z,100149.28
2019-03-18T08:48:55.425Z,100166.30
2019-03-18T08:51:35.819Z,100171.10
2019-03-18T08:54:22.274Z,100167.22
2019-03-18T08:57:09.213Z,100171.92
2019-03-18T08:59:56.629Z,100172.13
2019-03-18T09:02:43.433Z,100179.80
2019-03-18T09:05:30.171Z,100174.58
2019-03-18T09:08:19.603Z,100174.72
2019-03-18T09:11:09.105Z,100184.13
2019-03-18T09:13:58.605Z,100181.60
2019-03-18T09:16:47.793Z,100185.44
2019-03-18T09:19:34.114Z,100192.52
2019-03-18T09:22:20.772Z,100183.39
2019-03-18T09:25:09.012Z,100195.88
2019-03-18T09:27:55.462Z,100196.94
2019-03-18T09:30:42.606Z,100206.96
2019-03-18T09:33:32.357Z,100201.80
2019-03-18T09:36:19.178Z,100201.70
2019-03-18T09:39:07.223Z,100213.80
2019-03-18T09:41:55.395Z,100207.31
2019-03-18T09:44:48.025Z,100207.77
2019-03-18T09:47:34.886Z,100214.25
2019-03-18T09:50:22.634Z,100216.20
2019-03-18T09:53:09.714Z,100208.66
2019-03-18T09:55:56.498Z,100214.64
2019-03-18T09:58:43.022Z,100217.68
2019-03-18T10:01:31.282Z,100232.24
2019-03-18T10:04:20.351Z,100234.91
2019-03-18T10:07:08.922Z,100234.83
2019-03-18T10:09:55.831Z,100237.28
2019-03-18T10:12:42.580Z,100232.61
2019-03-18T10:15:29.434Z,100236.56
2019-03-18T10:18:16.259Z,100239.59
2019-03-18T10:21:03.167Z,100234.47
2019-03-18T10:23:50.435Z,100223.26
2019-03-18T10:26:36.899Z,100246.59
2019-03-18T10:29:23.798Z,100249.64
2019-03-18T10:32:13.186Z,100247.44
2019-03-18T10:35:02.986Z,100256.55
2019-03-18T10:37:50.440Z,100251.39
2019-03-18T10:40:37.046Z,100252.98
2019-03-18T10:43:24.231Z,100256.55
2019-03-18T10:46:10.951Z,100257.52
2019-03-18T10:49:00.423Z,100257.73
2019-03-18T10:51:49.764Z,100255.27
2019-03-18T10:54:42.823Z,100262.41
2019-03-18T10:57:31.087Z,100257.92
2019-03-18T11:00:17.885Z,100262.21
2019-03-18T11:03:04.720Z,100264.17
2019-03-18T11:05:51.766Z,100266.95
2019-03-18T11:08:38.566Z,100258.94
2019-03-18T11:11:24.981Z,100260.02
2019-03-18T11:14:14.417Z,100263.55
2019-03-18T11:17:01.110Z,100265.50
2019-03-18T11:19:57.831Z,100266.91
2019-03-18T11:22:35.484Z,100265.84
2019-03-18T11:25:22.679Z,100280.78
2019-03-18T11:28:09.294Z,100282.36
2019-03-18T11:30:56.630Z,100276.45
2019-03-18T11:33:43.749Z,100305.94
2019-03-18T11:36:31.599Z,100305.77
2019-03-18T11:39:18.908Z,100304.91
2019-03-18T11:42:12.109Z,100319.97
2019-03-18T11:44:59.002Z,100322.11
2019-03-18T11:47:46.355Z,100330.25
2019-03-18T11:50:35.995Z,100325.52
2019-03-18T11:53:22.666Z,100327.70
2019-03-18T11:56:11.786Z,100327.70
2019-03-18T11:58:58.840Z,100337.14
2019-03-18T12:01:45.779Z,100340.59
2019-03-18T12:04:32.941Z,100357.70
2019-03-18T12:07:20.418Z,100366.66
2019-03-18T12:10:11.769Z,100370.13
2019-03-18T12:13:03.992Z,100384.00
2019-03-18T12:15:53.120Z,100378.80
2019-03-18T12:18:40.189Z,100384.00
2019-03-18T12:21:28.941Z,100373.63
2019-03-18T12:24:15.460Z,100368.81
2019-03-18T12:27:06.614Z,100373.22
2019-03-18T12:29:56.009Z,100376.60
2019-03-18T12:32:45.377Z,100374.48
2019-03-18T12:35:33.968Z,100379.03
2019-03-18T12:38:20.344Z,100368.54
2019-03-18T12:41:06.897Z,100368.54
2019-03-18T12:43:56.903Z,100372.82
2019-03-18T12:46:49.005Z,100370.25
2019-03-18T12:49:36.153Z,100365.11
2019-03-18T12:52:23.138Z,100368.91
2019-03-18T12:55:14.038Z,100369.81
2019-03-18T12:58:01.129Z,100371.10
2019-03-18T13:00:47.851Z,100377.08
2019-03-18T13:03:35.981Z,100368.78
2019-03-18T13:06:25.610Z,100365.98
2019-03-18T13:09:13.366Z,100365.09
2019-03-18T13:12:00.028Z,100368.73
2019-03-18T13:14:46.499Z,100361.63
2019-03-18T13:17:33.331Z,100355.73
2019-03-18T13:20:23.007Z,100361.61
2019-03-18T13:23:11.792Z,100366.25
2019-03-18T13:25:58.164Z,100365.44
2019-03-18T13:28:48.523Z,100365.52
2019-03-18T13:31:37.414Z,100365.75
2019-03-18T13:34:25.846Z,100386.88
2019-03-18T13:37:12.642Z,100391.63
2019-03-18T13:39:59.194Z,100391.04
2019-03-18T13:42:46.160Z,100389.79
2019-03-18T13:45:33.266Z,100384.41
2019-03-18T13:48:19.795Z,100380.36
2019-03-18T13:51:21.119Z,100382.11
2019-03-18T13:54:06.152Z,100382.38
2019-03-18T13:56:52.452Z,100390.98
2019-03-18T13:59:41.969Z,100393.30
2019-03-18T14:02:29.778Z,100413.67
2019-03-18T21:19:45.008Z,100940.65
2019-03-18T21:22:31.718Z,100941.39
2019-03-18T21:25:17.523Z,100936.73
2019-03-18T21:28:03.717Z,100946.14
2019-03-18T21:30:49.634Z,100947.12
2019-03-18T21:33:36.120Z,100948.06
2019-03-18T21:36:36.946Z,100953.05
2019-03-18T21:39:10.805Z,100962.84
2019-03-18T21:41:56.839Z,100967.88
2019-03-18T21:44:43.981Z,100978.43
2019-03-18T21:47:31.001Z,100978.43
2019-03-18T21:50:17.177Z,100972.59
2019-03-18T21:53:03.634Z,100973.04
2019-03-18T21:55:49.478Z,100985.78
2019-03-18T21:58:35.455Z,101045.20
2019-03-18T22:01:22.381Z,100979.13
2019-03-18T22:04:08.681Z,100984.58
2019-03-18T22:06:55.082Z,100995.00
2019-03-18T22:09:41.790Z,100994.47
2019-03-18T22:12:28.047Z,100994.47
2019-03-18T22:15:14.108Z,100989.98
2019-03-18T22:18:00.583Z,100991.98
2019-03-18T22:20:46.982Z,100991.98
2019-03-18T22:23:32.875Z,101003.28
2019-03-18T22:26:19.325Z,100973.90
2019-03-18T22:29:05.373Z,101003.47
2019-03-18T22:31:52.094Z,101003.06
2019-03-18T22:34:38.550Z,101003.06
2019-03-18T22:37:25.721Z,100997.15
2019-03-18T22:40:13.879Z,100995.34
2019-03-18T22:43:00.074Z,100996.95
2019-03-18T22:45:46.500Z,100997.48
2019-03-18T22:48:33.086Z,100991.66
2019-03-18T22:51:19.792Z,101000.72
2019-03-18T22:54:06.191Z,101005.67
2019-03-18T22:56:52.414Z,101005.67
2019-03-18T22:59:38.784Z,101012.77
2019-03-18T23:02:25.011Z,101012.77
2019-03-18T23:05:15.698Z,101008.41
2019-03-18T23:08:02.306Z,101013.98
2019-03-18T23:10:48.148Z,101020.59
2019-03-18T23:13:34.598Z,101020.59
2019-03-18T23:16:20.705Z,101034.54
2019-03-18T23:19:06.998Z,101029.27
2019-03-18T23:21:53.412Z,101029.27
2019-03-18T23:24:40.522Z,101031.38
2019-03-18T23:27:27.955Z,101028.95
2019-03-18T23:30:14.497Z,101029.17
2019-03-18T23:33:01.062Z,101022.02
2019-03-18T23:35:48.266Z,101026.52
2019-03-18T23:38:34.276Z,101033.77
2019-03-18T23:41:20.886Z,101034.75
2019-03-18T23:44:07.147Z,101034.75
2019-03-18T23:46:53.589Z,101051.26
2019-03-18T23:49:39.634Z,101051.26
2019-03-18T23:52:26.237Z,101053.39
2019-03-18T23:55:18.790Z,101059.25
2019-03-18T23:58:00.468Z,101060.96
